Time;durP1;ratioP1;P1;durP2;ratioP2;P2;SDS_P1;SDS_P2;PMS_P1;PMS_P2;Temp;Humidity;BMP_temperature;BMP_pressure;BME280_temperature;BME280_humidity;BME280_pressure;Samples;Min_cycle;Max_cycle;Signal;HPM_P1;HPM_P2
2021/09/23 00:00:30;;;;;;;16.17;7.15;;;;;;;10.14;87.70;101296.06;5063868;28;20044;-79
2021/09/23 00:05:26;;;;;;;18.95;9.10;;;;;;;10.19;88.61;101290.81;5062536;28;20037;-78
2021/09/23 00:07:55;;;;;;;14.13;6.85;;;;;;;10.17;87.94;101301.38;5044787;28;20087;-79
2021/09/23 00:10:26;;;;;;;24.23;10.43;;;;;;;10.19;88.10;101298.72;5062782;28;20033;-79
2021/09/23 00:12:52;;;;;;;14.93;7.03;;;;;;;10.22;88.26;101298.78;5059572;28;20517;-79
2021/09/23 00:15:18;;;;;;;15.90;7.70;;;;;;;10.25;88.31;101302.31;5062486;28;20476;-79
2021/09/23 00:17:48;;;;;;;16.25;7.32;;;;;;;10.26;88.72;101300.53;5061449;28;20090;-79
2021/09/23 00:20:22;;;;;;;16.40;8.27;;;;;;;10.29;88.66;101300.59;5051774;28;20068;-79
2021/09/23 00:22:48;;;;;;;13.40;7.65;;;;;;;10.30;88.52;101297.97;5063110;28;20063;-79
2021/09/23 00:25:14;;;;;;;14.63;7.20;;;;;;;10.33;88.36;101306.78;5061569;28;20029;-79
2021/09/23 00:27:40;;;;;;;14.50;7.82;;;;;;;10.29;87.98;101305.88;5054283;28;20056;-79
2021/09/23 00:30:07;;;;;;;23.08;8.60;;;;;;;10.26;88.01;101305.81;5059938;28;20509;-79
2021/09/23 00:32:33;;;;;;;18.35;8.48;;;;;;;10.24;88.13;101312.84;5061338;28;20044;-78
2021/09/23 00:34:58;;;;;;;16.05;6.53;;;;;;;10.19;87.55;101311.91;5062533;28;20040;-79
2021/09/23 00:37:23;;;;;;;13.85;6.60;;;;;;;10.18;88.59;101310.16;5035438;28;20045;-78
2021/09/23 00:39:49;;;;;;;13.45;7.07;;;;;;;10.15;88.62;101307.50;5062506;28;20089;-78
2021/09/23 00:42:14;;;;;;;17.40;7.50;;;;;;;10.15;88.76;101313.66;5051547;28;20034;-79
2021/09/23 00:44:40;;;;;;;17.90;7.43;;;;;;;10.14;88.70;101311.00;5062816;28;20037;-78
2021/09/23 00:47:05;;;;;;;15.40;8.38;;;;;;;10.16;89.23;101306.63;5033748;28;20030;-78
2021/09/23 00:49:31;;;;;;;13.35;6.00;;;;;;;10.13;88.78;101303.97;5062855;28;20041;-79
2021/09/23 00:51:57;;;;;;;10.45;5.72;;;;;;;10.07;88.41;101300.41;5042342;28;20064;-78
2021/09/23 00:54:23;;;;;;;18.83;8.57;;;;;;;9.96;88.03;101296.78;5051215;28;20033;-79
2021/09/23 00:56:48;;;;;;;17.92;7.75;;;;;;;9.97;88.82;101302.94;5040141;28;20041;-78
2021/09/23 00:59:13;;;;;;;13.57;6.55;;;;;;;9.94;88.35;101298.53;5026157;28;20029;-78
2021/09/23 01:01:45;;;;;;;14.20;5.97;;;;;;;9.97;88.24;101297.69;5040561;28;20052;-78
2021/09/23 01:04:13;;;;;;;15.57;6.90;;;;;;;9.98;88.40;101289.78;5050218;28;20682;-78
2021/09/23 01:06:39;;;;;;;18.35;6.88;;;;;;;10.07;89.06;101287.22;5056928;28;20123;-79
2021/09/23 01:09:04;;;;;;;11.00;6.63;;;;;;;10.14;89.03;101288.16;5050898;28;20067;-79
2021/09/23 01:11:30;;;;;;;15.90;7.78;;;;;;;10.20;88.18;101279.41;5057328;28;20033;-78
2021/09/23 01:13:56;;;;;;;12.50;6.70;;;;;;;10.24;88.25;101278.53;5032702;28;20029;-79
2021/09/23 01:16:42;;;;;;;19.00;8.90;;;;;;;10.35;88.78;101273.38;5036026;28;20120;-78
2021/09/23 01:19:17;;;;;;;12.00;7.68;;;;;;;10.34;89.13;101272.47;5059215;28;20029;-78
2021/09/23 01:21:43;;;;;;;19.85;8.65;;;;;;;10.35;88.85;101268.09;5047644;28;20044;-78
2021/09/23 01:24:09;;;;;;;11.82;6.05;;;;;;;10.33;88.66;101265.47;5059823;28;20033;-79
2021/09/23 01:26:34;;;;;;;17.05;8.18;;;;;;;10.30;88.65;101270.72;5031149;28;20067;-78
2021/09/23 01:29:09;;;;;;;12.10;6.93;;;;;;;10.29;88.54;101263.66;5058116;28;20338;-78
2021/09/23 01:31:45;;;;;;;12.50;6.75;;;;;;;10.30;88.45;101271.59;5049765;28;20037;-79
2021/09/23 01:34:11;;;;;;;12.98;6.53;;;;;;;10.33;88.33;101264.56;5057297;28;20048;-79
2021/09/23 01:36:37;;;;;;;15.75;6.82;;;;;;;10.38;88.38;101262.84;5046860;28;20056;-78
2021/09/23 01:39:04;;;;;;;10.70;5.82;;;;;;;10.42;88.16;101252.31;5048942;28;20029;-79
2021/09/23 01:41:29;;;;;;;10.48;4.97;;;;;;;10.51;88.28;101251.50;5056330;28;20060;-79
2021/09/23 01:43:55;;;;;;;12.95;8.30;;;;;;;10.55;87.94;101240.06;5031362;28;20037;-79
2021/09/23 01:46:20;;;;;;;11.90;6.72;;;;;;;10.63;87.97;101237.47;5059606;28;20029;-79
2021/09/23 01:49:14;;;;;;;14.77;7.40;;;;;;;10.70;87.72;101234.88;5044475;28;20034;-79
2021/09/23 01:51:40;;;;;;;14.98;6.85;;;;;;;10.69;87.08;101237.50;5047982;28;20052;-79
2021/09/23 01:54:05;;;;;;;13.20;8.20;;;;;;;10.58;87.09;101233.91;5059345;28;20033;-78
2021/09/23 01:56:31;;;;;;;14.15;6.22;;;;;;;10.48;86.91;101225.97;5055580;28;20097;-78
2021/09/23 01:58:56;;;;;;;10.65;6.25;;;;;;;10.37;87.49;101214.44;5056613;28;20059;-78
2021/09/23 02:01:22;;;;;;;13.13;7.32;;;;;;;10.31;87.46;101211.78;5049355;28;20045;-78
2021/09/23 02:03:49;;;;;;;17.63;10.70;;;;;;;10.28;87.35;101214.41;5056246;28;20033;-79
2021/09/23 02:06:28;;;;;;;15.52;9.52;;;;;;;10.23;87.70;101214.34;5062449;28;20025;-79
2021/09/23 02:08:54;;;;;;;16.40;10.00;;;;;;;10.21;87.89;101208.16;5034806;28;20024;-79
2021/09/23 02:11:20;;;;;;;21.27;11.30;;;;;;;10.18;87.94;101205.50;5040185;28;20411;-78
2021/09/23 02:13:50;;;;;;;18.98;8.70;;;;;;;10.15;87.85;101202.88;5051222;28;20059;-79
2021/09/23 02:16:15;;;;;;;14.15;8.45;;;;;;;10.11;87.89;101203.72;5039715;28;20101;-79
2021/09/23 02:18:42;;;;;;;12.80;9.02;;;;;;;10.05;87.75;101195.75;5050875;28;20068;-79
2021/09/23 02:21:08;;;;;;;14.05;8.23;;;;;;;10.00;87.60;101198.34;5038535;28;20041;-78
2021/09/23 02:23:33;;;;;;;21.35;13.55;;;;;;;9.99;88.33;101191.34;5052959;28;20041;-78
2021/09/23 02:25:58;;;;;;;19.10;11.10;;;;;;;9.97;88.90;101186.91;5043225;28;20070;-79
2021/09/23 02:28:24;;;;;;;13.32;8.95;;;;;;;9.91;88.38;101176.34;5051156;28;20124;-78
2021/09/23 02:30:49;;;;;;;15.95;9.23;;;;;;;9.87;88.13;101175.41;5043774;28;20048;-78
2021/09/23 02:33:15;;;;;;;20.73;10.02;;;;;;;9.86;88.33;101173.66;5050660;28;20056;-79
2021/09/23 02:35:40;;;;;;;17.98;10.90;;;;;;;9.84;88.21;101170.13;5065029;28;20037;-78
2021/09/23 02:38:06;;;;;;;14.05;9.10;;;;;;;9.82;88.75;101164.88;5037426;28;20049;-77
2021/09/23 02:40:31;;;;;;;13.65;9.80;;;;;;;9.85;89.50;101163.97;5048373;28;20041;-78
2021/09/23 02:42:57;;;;;;;19.33;13.85;;;;;;;9.81;89.19;101162.22;5060561;28;20047;-78
2021/09/23 02:45:22;;;;;;;26.00;15.20;;;;;;;9.83;89.95;101155.19;5055393;28;20025;-78
2021/09/23 02:47:48;;;;;;;24.70;17.30;;;;;;;9.86;90.87;101153.44;5060416;28;20045;-77
2021/09/23 02:50:13;;;;;;;23.58;17.60;;;;;;;9.90;90.29;101142.91;5038318;28;20096;-78
2021/09/23 02:52:39;;;;;;;30.20;21.23;;;;;;;9.92;90.68;101144.69;5045345;28;20053;-78
2021/09/23 02:55:05;;;;;;;33.80;23.75;;;;;;;9.94;90.63;101139.44;5053403;28;20038;-78
2021/09/23 02:57:31;;;;;;;36.47;25.30;;;;;;;9.98;90.99;101135.94;5038248;28;20097;-78
2021/09/23 02:59:56;;;;;;;37.45;26.27;;;;;;;10.00;91.60;101136.84;5046217;28;20044;-78
2021/09/23 03:02:22;;;;;;;28.30;20.08;;;;;;;10.04;91.19;101136.88;5052745;28;20029;-77
2021/09/23 03:04:47;;;;;;;25.52;18.63;;;;;;;10.05;91.12;101143.91;5057383;28;20115;-78
2021/09/23 03:07:13;;;;;;;24.02;15.43;;;;;;;10.05;90.88;101141.25;5032524;28;20044;-78
2021/09/23 03:09:38;;;;;;;21.85;14.05;;;;;;;10.04;90.87;101142.16;5040402;28;20037;-79
2021/09/23 03:12:04;;;;;;;19.35;12.93;;;;;;;10.04;90.41;101142.16;5016248;28;20069;-79
2021/09/23 03:14:29;;;;;;;21.33;13.57;;;;;;;10.03;91.20;101148.31;5019060;28;20040;-78
2021/09/23 03:16:55;;;;;;;18.92;12.45;;;;;;;10.02;90.76;101137.72;5040186;28;20113;-78
2021/09/23 03:19:20;;;;;;;19.38;12.60;;;;;;;9.99;90.53;101133.31;5018317;28;20053;-79
2021/09/23 03:21:46;;;;;;;17.65;12.43;;;;;;;9.97;90.41;101129.78;5040695;28;20029;-78
2021/09/23 03:24:11;;;;;;;18.88;12.45;;;;;;;9.96;89.82;101127.16;5032845;28;20030;-78
2021/09/23 03:26:39;;;;;;;14.00;10.27;;;;;;;9.94;89.94;101124.50;5040027;28;20446;-79
2021/09/23 03:29:05;;;;;;;21.25;13.13;;;;;;;9.88;90.18;101120.06;5016156;28;20032;-79
2021/09/23 03:31:32;;;;;;;19.60;13.02;;;;;;;9.85;89.75;101124.44;5041958;28;20061;-78
2021/09/23 03:33:58;;;;;;;20.45;13.30;;;;;;;9.78;89.22;101114.75;5040393;28;20041;-79
2021/09/23 03:36:24;;;;;;;17.60;10.80;;;;;;;9.74;90.24;101111.19;5039459;28;20030;-78
2021/09/23 03:38:52;;;;;;;20.10;13.52;;;;;;;9.73;89.94;101108.56;5023458;28;20057;-77
2021/09/23 03:41:18;;;;;;;17.83;10.95;;;;;;;9.67;90.29;101104.13;5043048;28;20080;-78
2021/09/23 03:43:44;;;;;;;22.80;13.15;;;;;;;9.63;90.50;101103.22;5044296;28;20061;-78
2021/09/23 03:46:09;;;;;;;15.75;10.75;;;;;;;9.61;90.12;101104.94;5029495;28;20034;-78
2021/09/23 03:48:35;;;;;;;18.23;11.70;;;;;;;9.57;89.79;101105.81;5029624;28;20056;-78
2021/09/23 03:51:01;;;;;;;13.65;9.25;;;;;;;9.55;89.98;101099.63;5016035;28;20033;-78
2021/09/23 03:53:27;;;;;;;12.27;8.80;;;;;;;9.51;88.78;101096.97;5022594;28;20069;-78
2021/09/23 03:55:52;;;;;;;10.65;7.55;;;;;;;9.43;89.23;101089.91;5029936;28;20041;-79
2021/09/23 03:58:18;;;;;;;12.93;9.18;;;;;;;9.41;89.43;101090.78;5039479;28;20042;-78
2021/09/23 04:00:43;;;;;;;12.60;9.15;;;;;;;9.36;89.14;101095.13;5014926;28;20033;-77
2021/09/23 04:03:09;;;;;;;14.25;9.93;;;;;;;9.33;89.78;101089.84;5039693;28;20057;-78
2021/09/23 04:05:34;;;;;;;12.55;9.25;;;;;;;9.28;89.65;101092.41;5043407;28;20037;-78
2021/09/23 04:08:01;;;;;;;16.65;10.52;;;;;;;9.23;88.94;101085.34;5044127;28;20067;-78
2021/09/23 04:10:28;;;;;;;17.63;12.02;;;;;;;9.21;89.73;101080.06;5049412;28;20033;-78
2021/09/23 04:12:55;;;;;;;14.82;10.30;;;;;;;9.20;89.32;101081.81;5060433;28;20059;-78
2021/09/23 04:15:23;;;;;;;15.18;10.90;;;;;;;9.16;89.62;101081.78;5024040;28;20040;-79
2021/09/23 04:17:49;;;;;;;11.10;8.68;;;;;;;9.10;88.81;101069.44;5037821;28;20072;-78
2021/09/23 04:20:15;;;;;;;12.13;7.43;;;;;;;9.04;88.85;101073.75;5029365;28;20036;-78
2021/09/23 04:22:48;;;;;;;18.60;12.15;;;;;;;8.99;89.33;101068.47;5040513;28;20037;-77
2021/09/23 04:25:14;;;;;;;15.43;10.48;;;;;;;8.98;90.06;101064.06;5047273;28;20044;-77
2021/09/23 04:27:39;;;;;;;14.27;10.43;;;;;;;8.99;89.71;101065.84;5049072;28;20057;-78
2021/09/23 04:30:05;;;;;;;13.80;9.65;;;;;;;9.05;90.31;101057.13;5043680;28;20033;-79
2021/09/23 04:32:31;;;;;;;15.35;10.73;;;;;;;9.07;90.29;101061.53;5029757;28;20042;-78
2021/09/23 04:34:56;;;;;;;22.20;13.55;;;;;;;9.12;91.14;101051.91;5030251;28;20040;-78
2021/09/23 04:37:21;;;;;;;18.00;9.95;;;;;;;9.14;91.11;101060.72;5036107;28;20065;-79
2021/09/23 04:39:49;;;;;;;12.45;8.77;;;;;;;9.19;90.88;101052.81;5036585;28;20089;-78
2021/09/23 04:42:15;;;;;;;15.27;11.30;;;;;;;9.20;90.64;101050.22;5033969;28;20032;-78
2021/09/23 04:44:40;;;;;;;14.15;10.23;;;;;;;9.20;90.83;101047.59;5048308;28;20052;-78
2021/09/23 04:47:06;;;;;;;19.98;11.25;;;;;;;9.24;90.89;101050.22;5049203;28;20100;-78
2021/09/23 04:49:32;;;;;;;15.90;10.65;;;;;;;9.24;90.55;101052.88;5049902;28;20063;-78
2021/09/23 04:52:00;;;;;;;19.38;11.65;;;;;;;9.26;91.06;101051.13;5057433;28;20036;-79
2021/09/23 04:54:25;;;;;;;14.73;9.55;;;;;;;9.28;90.76;101050.28;5048573;28;20045;-79
2021/09/23 04:56:50;;;;;;;18.40;12.27;;;;;;;9.29;90.69;101043.25;5041200;28;20037;-79
2021/09/23 04:59:16;;;;;;;20.38;11.20;;;;;;;9.35;91.55;101035.38;5043367;28;20123;-79
2021/09/23 05:01:43;;;;;;;16.50;11.75;;;;;;;9.38;91.40;101038.94;5059489;28;20039;-78
2021/09/23 05:04:09;;;;;;;16.20;10.18;;;;;;;9.35;90.35;101038.00;5026134;28;20120;-79
2021/09/23 05:06:34;;;;;;;13.75;9.30;;;;;;;9.30;89.78;101031.84;5038744;28;20025;-79
2021/09/23 05:09:01;;;;;;;17.45;11.85;;;;;;;9.32;90.43;101030.97;5028587;28;20030;-79
2021/09/23 05:11:28;;;;;;;16.40;11.15;;;;;;;9.39;90.80;101030.16;5031826;28;20097;-78
2021/09/23 05:13:54;;;;;;;16.38;11.43;;;;;;;9.40;90.75;101033.66;5037451;28;20022;-78
2021/09/23 05:16:20;;;;;;;19.77;12.43;;;;;;;9.39;90.23;101034.53;5035061;28;20045;-79
2021/09/23 05:18:46;;;;;;;16.55;10.82;;;;;;;9.39;89.91;101043.31;5038515;28;20041;-78
2021/09/23 05:21:11;;;;;;;16.67;10.68;;;;;;;9.39;89.67;101045.09;5013980;28;20045;-78
2021/09/23 05:23:37;;;;;;;13.50;9.98;;;;;;;9.43;89.96;101046.84;5040093;28;20042;-78
2021/09/23 05:26:02;;;;;;;15.45;10.38;;;;;;;9.44;89.62;101040.72;5028183;28;20535;-78
2021/09/23 05:28:28;;;;;;;16.45;12.32;;;;;;;9.49;89.95;101033.75;5040223;28;20056;-79
2021/09/23 05:30:53;;;;;;;18.38;11.93;;;;;;;9.53;89.94;101027.59;5039070;28;20037;-78
2021/09/23 05:33:18;;;;;;;17.95;12.80;;;;;;;9.55;89.36;101025.84;5038475;28;20033;-79
2021/09/23 05:35:45;;;;;;;18.27;12.23;;;;;;;9.59;88.79;101021.50;5037960;28;20624;-78
2021/09/23 05:38:11;;;;;;;16.50;10.85;;;;;;;9.61;89.00;101019.75;5038291;28;20105;-79
2021/09/23 05:40:37;;;;;;;17.48;12.00;;;;;;;9.68;89.10;101020.66;5041744;28;20060;-78
2021/09/23 05:43:03;;;;;;;21.40;13.63;;;;;;;9.76;88.94;101022.47;5038061;28;20030;-78
2021/09/23 05:45:28;;;;;;;15.95;11.40;;;;;;;9.85;89.78;101017.25;5037145;28;20066;-78
2021/09/23 05:47:54;;;;;;;18.65;13.52;;;;;;;9.96;90.45;101014.66;5035654;28;20079;-79
2021/09/23 05:50:19;;;;;;;19.70;12.05;;;;;;;10.05;89.97;101016.44;5027053;28;20042;-78
2021/09/23 05:52:45;;;;;;;12.77;9.27;;;;;;;10.12;89.72;101017.34;5031251;28;20117;-79
2021/09/23 05:55:10;;;;;;;16.27;11.25;;;;;;;10.21;89.82;101005.06;5030042;28;20050;-78
2021/09/23 05:57:36;;;;;;;14.48;10.80;;;;;;;10.35;90.04;100999.88;5035328;28;20106;-78
2021/09/23 06:00:11;;;;;;;13.95;11.38;;;;;;;10.50;90.01;100999.00;5034707;28;20048;-77
2021/09/23 06:02:40;;;;;;;17.75;11.60;;;;;;;10.67;89.92;100991.13;5043000;28;20076;-79
2021/09/23 06:05:06;;;;;;;16.30;10.27;;;;;;;10.83;89.36;101014.00;5047628;28;20029;-78
2021/09/23 06:07:31;;;;;;;16.23;10.48;;;;;;;10.98;89.16;101010.50;5033465;28;20037;-79
2021/09/23 06:09:57;;;;;;;17.77;11.10;;;;;;;11.14;88.64;101014.00;5058241;28;20037;-78
2021/09/23 06:12:22;;;;;;;24.05;13.25;;;;;;;11.26;88.05;101013.09;5033715;28;20044;-78
2021/09/23 06:14:47;;;;;;;19.00;11.18;;;;;;;11.39;87.65;101010.41;5063953;28;20087;-80
2021/09/23 06:17:14;;;;;;;14.15;10.27;;;;;;;11.54;87.61;101009.53;5063468;28;20024;-78
2021/09/23 06:19:40;;;;;;;17.20;11.43;;;;;;;11.65;87.36;101006.84;5063434;28;20399;-79
2021/09/23 06:22:05;;;;;;;14.88;10.95;;;;;;;11.73;86.52;101012.09;5059738;28;20105;-79
2021/09/23 06:24:30;;;;;;;14.85;11.25;;;;;;;11.87;86.58;101006.78;5062881;28;20128;-79
2021/09/23 06:26:56;;;;;;;17.83;11.93;;;;;;;11.97;86.32;101000.59;5059474;28;20068;-79
2021/09/23 06:29:21;;;;;;;15.38;10.18;;;;;;;12.06;86.00;100997.91;5053354;28;20175;-79
2021/09/23 06:31:47;;;;;;;16.63;9.13;;;;;;;12.16;85.30;100999.63;5060342;28;20053;-79
2021/09/23 06:34:13;;;;;;;13.32;9.20;;;;;;;12.21;84.58;100994.31;5052434;28;20451;-78
2021/09/23 06:36:38;;;;;;;14.05;9.55;;;;;;;12.35;84.57;100988.94;5027110;28;20485;-79
2021/09/23 06:39:04;;;;;;;12.50;9.48;;;;;;;12.48;84.01;100987.97;5060555;28;20041;-79
2021/09/23 06:41:30;;;;;;;16.13;9.93;;;;;;;12.55;83.82;100981.75;5060876;28;20048;-79
2021/09/23 06:43:56;;;;;;;11.60;7.90;;;;;;;12.66;83.83;100976.38;5050511;28;20033;-79
2021/09/23 06:46:22;;;;;;;14.57;8.45;;;;;;;12.69;83.61;100979.88;5061865;28;20044;-78
2021/09/23 06:48:49;;;;;;;15.90;10.95;;;;;;;12.75;83.20;100980.72;5059121;28;20064;-79
2021/09/23 06:51:16;;;;;;;14.77;9.05;;;;;;;12.88;82.99;100969.13;5060823;28;20652;-79
2021/09/23 06:53:41;;;;;;;13.25;7.75;;;;;;;12.98;82.11;100975.22;5049033;28;20030;-79
2021/09/23 06:56:07;;;;;;;13.43;9.18;;;;;;;13.06;81.81;100965.44;5061083;28;20033;-80
2021/09/23 06:58:33;;;;;;;19.02;12.90;;;;;;;13.19;81.21;100969.72;5053720;28;20043;-79
2021/09/23 07:01:17;;;;;;;12.38;9.40;;;;;;;13.37;81.13;100963.38;5058388;28;20048;-79
2021/09/23 07:04:02;;;;;;;10.63;8.30;;;;;;;13.47;80.43;100962.38;5055632;28;20052;-78
2021/09/23 07:06:47;;;;;;;8.85;6.68;;;;;;;13.58;80.76;100959.63;5046796;28;20469;-79
2021/09/23 07:09:21;;;;;;;12.15;7.80;;;;;;;13.64;80.37;100962.19;5043937;28;20120;-79
2021/09/23 07:11:47;;;;;;;10.02;8.05;;;;;;;13.64;79.92;100967.50;5035819;28;20075;-78
2021/09/23 07:14:12;;;;;;;12.50;7.45;;;;;;;13.66;79.18;100960.41;5041955;28;20037;-79
2021/09/23 07:16:37;;;;;;;10.52;7.90;;;;;;;13.72;79.62;100954.13;5031434;28;20124;-79
2021/09/23 07:19:03;;;;;;;10.88;7.22;;;;;;;13.86;79.54;100951.31;5018325;28;20033;-79
2021/09/23 07:21:28;;;;;;;8.95;7.28;;;;;;;13.91;79.54;100947.72;5045909;28;20044;-79
2021/09/23 07:23:55;;;;;;;9.93;7.57;;;;;;;13.96;78.76;100948.53;5047613;28;20124;-79
2021/09/23 07:26:21;;;;;;;11.38;7.28;;;;;;;14.01;78.45;100941.34;5030370;28;20086;-79
2021/09/23 07:28:46;;;;;;;10.90;8.02;;;;;;;14.12;78.05;100943.00;5046311;28;20435;-79
2021/09/23 07:31:12;;;;;;;12.18;7.85;;;;;;;14.24;77.93;100938.38;5047603;28;20029;-79
2021/09/23 07:33:37;;;;;;;11.60;7.32;;;;;;;14.36;77.57;100932.03;5047143;28;20056;-79
2021/09/23 07:36:03;;;;;;;10.60;7.03;;;;;;;14.57;76.36;100932.63;5046724;28;20076;-79
2021/09/23 07:38:30;;;;;;;9.10;6.60;;;;;;;14.64;77.20;100926.28;5049477;28;20064;-79
2021/09/23 07:40:56;;;;;;;10.70;6.82;;;;;;;14.89;76.86;100927.63;5027734;28;20514;-79
2021/09/23 07:43:22;;;;;;;10.18;7.00;;;;;;;14.95;76.26;100931.97;5038436;28;20039;-79
2021/09/23 07:45:47;;;;;;;11.40;7.38;;;;;;;15.09;74.36;100924.63;5044503;28;20033;-78
2021/09/23 07:48:13;;;;;;;9.85;7.13;;;;;;;15.21;74.03;100923.50;5030819;28;20053;-79
2021/09/23 07:50:38;;;;;;;8.35;6.45;;;;;;;15.32;74.20;100929.47;5037467;28;20032;-79
2021/09/23 07:53:03;;;;;;;9.50;7.28;;;;;;;15.42;73.06;100918.69;5044677;28;20127;-79
2021/09/23 07:55:29;;;;;;;12.32;6.85;;;;;;;15.37;73.09;100924.09;5036843;28;20061;-79
2021/09/23 07:57:54;;;;;;;8.88;6.65;;;;;;;15.56;72.56;100904.19;5025188;28;20040;-79
2021/09/23 08:00:20;;;;;;;10.55;6.30;;;;;;;15.71;72.58;100911.00;5042869;28;20451;-79
2021/09/23 08:02:46;;;;;;;8.57;6.65;;;;;;;15.71;72.87;100907.47;5035585;28;20033;-79
2021/09/23 08:05:15;;;;;;;8.43;6.40;;;;;;;15.82;72.70;100907.22;5046211;28;20406;-79
2021/09/23 08:07:44;;;;;;;9.10;6.25;;;;;;;15.88;72.63;100899.13;5036121;28;20041;-80
2021/09/23 08:10:10;;;;;;;9.85;6.40;;;;;;;15.87;72.71;100903.56;5046226;28;20037;-79
2021/09/23 08:12:36;;;;;;;8.30;5.75;;;;;;;15.90;72.57;100903.50;5033292;28;20033;-79
2021/09/23 08:15:03;;;;;;;18.65;8.57;;;;;;;15.89;72.45;100892.88;5028472;28;20037;-79
2021/09/23 08:17:49;;;;;;;23.63;12.35;;;;;;;15.94;72.37;100877.69;5045454;28;20049;-79
2021/09/23 08:20:23;;;;;;;12.07;8.63;;;;;;;16.02;71.84;100880.19;5043577;28;20132;-80
2021/09/23 08:22:50;;;;;;;10.82;6.10;;;;;;;16.03;71.69;100876.59;5026983;28;20392;-80
2021/09/23 08:25:16;;;;;;;8.30;5.60;;;;;;;16.06;72.13;100876.50;5049498;28;20033;-79
2021/09/23 08:27:41;;;;;;;8.70;5.75;;;;;;;16.12;71.33;100869.28;5039197;28;20040;-79
2021/09/23 08:30:08;;;;;;;8.55;5.35;;;;;;;16.23;71.04;100855.69;5044322;28;20030;-79
2021/09/23 08:32:34;;;;;;;8.77;4.95;;;;;;;16.33;71.47;100856.38;5036481;28;20029;-80
2021/09/23 08:35:05;;;;;;;7.72;4.97;;;;;;;16.48;70.59;100837.34;5030256;28;20059;-79
2021/09/23 08:37:35;;;;;;;10.57;6.00;;;;;;;16.53;69.42;100838.09;5037461;28;20034;-79
2021/09/23 08:40:01;;;;;;;9.52;5.38;;;;;;;16.58;69.46;100836.19;5043828;28;20052;-80
2021/09/23 08:42:27;;;;;;;6.63;4.60;;;;;;;16.78;69.71;100841.00;5036263;28;20088;-78
2021/09/23 08:44:56;;;;;;;8.73;4.78;;;;;;;16.96;69.52;100833.44;5044464;28;20055;-79
2021/09/23 08:47:23;;;;;;;7.68;5.07;;;;;;;17.07;67.34;100826.00;5012455;28;20507;-79
2021/09/23 08:49:48;;;;;;;6.43;4.82;;;;;;;17.12;67.32;100828.53;5046414;28;20032;-80
2021/09/23 08:52:14;;;;;;;7.93;5.28;;;;;;;17.17;66.90;100826.63;5024833;28;20037;-80
2021/09/23 08:54:39;;;;;;;7.43;4.45;;;;;;;17.27;66.16;100830.78;5035999;28;20037;-80
2021/09/23 08:57:05;;;;;;;6.88;4.90;;;;;;;17.30;66.84;100825.34;5045192;28;20075;-80
2021/09/23 08:59:32;;;;;;;8.30;5.18;;;;;;;17.35;65.34;100815.41;5044462;28;20052;-80
2021/09/23 09:02:00;;;;;;;9.25;5.18;;;;;;;17.33;64.43;100811.91;5029108;28;20116;-80
2021/09/23 09:04:34;;;;;;;7.88;5.72;;;;;;;17.39;65.92;100827.72;5035414;28;20060;-79
2021/09/23 09:07:25;;;;;;;16.02;8.05;;;;;;;17.35;65.08;100819.88;5018557;28;20044;-80
2021/09/23 09:10:10;;;;;;;;;;;;;;;17.34;64.95;100805.63;5020182;28;20029;-79
2021/09/23 09:12:38;;;;;;;7.40;5.50;;;;;;;17.44;64.56;100791.09;5042825;28;19971;-79
2021/09/23 09:15:05;;;;;;;7.65;5.50;;;;;;;17.59;65.58;100791.56;5036106;28;20034;-79
2021/09/23 09:17:37;;;;;;;7.47;5.45;;;;;;;17.76;65.07;100783.88;5038448;28;20025;-79
2021/09/23 09:20:07;;;;;;;6.28;4.47;;;;;;;17.84;63.60;100781.91;5043803;28;20133;-79
2021/09/23 09:22:34;;;;;;;8.25;4.90;;;;;;;17.83;62.40;100779.28;5016633;28;20029;-79
2021/09/23 09:25:12;;;;;;;8.80;4.75;;;;;;;17.85;62.81;100770.28;5036896;28;20060;-79
2021/09/23 09:27:43;;;;;;;6.88;4.63;;;;;;;17.91;61.53;100748.72;5015647;28;20423;-79
2021/09/23 09:30:17;;;;;;;8.02;4.38;;;;;;;18.07;61.89;100743.75;5045873;28;20056;-80
2021/09/23 09:32:51;;;;;;;8.10;5.03;;;;;;;18.23;61.06;100744.09;5020480;28;20021;-79
2021/09/23 09:35:20;;;;;;;7.85;4.20;;;;;;;18.35;60.04;100745.47;5037856;28;20033;-79
2021/09/23 09:37:51;;;;;;;8.77;4.32;;;;;;;18.49;58.11;100732.47;5024218;28;20037;-79
2021/09/23 09:40:19;;;;;;;6.72;4.13;;;;;;;18.65;58.17;100730.13;5044642;28;20094;-80
2021/09/23 09:42:48;;;;;;;6.97;3.60;;;;;;;18.81;57.22;100720.69;5036097;28;20033;-80
2021/09/23 09:45:26;;;;;;;7.60;4.13;;;;;;;19.02;56.18;100710.06;5042137;28;20041;-79
2021/09/23 09:47:52;;;;;;;6.18;3.80;;;;;;;19.12;55.67;100710.59;5030994;28;20401;-80
2021/09/23 09:50:27;;;;;;;7.93;4.30;;;;;;;19.04;55.46;100697.50;5044905;28;20043;-80
2021/09/23 09:52:58;;;;;;;6.03;3.55;;;;;;;19.26;55.80;100705.59;5043320;28;20029;-80
2021/09/23 09:55:32;;;;;;;5.55;3.28;;;;;;;19.42;54.36;100692.47;5026893;28;20029;-79
2021/09/23 09:57:59;;;;;;;11.57;3.20;;;;;;;19.23;53.52;100695.88;5036116;28;20029;-80
2021/09/23 10:00:27;;;;;;;7.40;3.53;;;;;;;19.31;54.63;100694.69;5042048;28;20033;-80
2021/09/23 10:02:53;;;;;;;6.10;3.50;;;;;;;19.39;53.79;100676.53;5035023;28;20161;-79
2021/09/23 10:05:29;;;;;;;7.30;4.20;;;;;;;19.47;52.54;100669.94;5040996;28;20135;-79
2021/09/23 10:07:57;;;;;;;5.65;3.58;;;;;;;19.59;52.40;100668.56;5032705;28;20081;-80
2021/09/23 10:10:28;;;;;;;6.30;2.97;;;;;;;19.75;52.87;100665.28;5045952;28;20029;-79
2021/09/23 10:12:57;;;;;;;5.97;2.97;;;;;;;19.67;52.08;100658.41;5023763;28;20032;-79
2021/09/23 10:15:24;;;;;;;6.20;3.20;;;;;;;19.66;52.09;100659.38;5000953;28;20030;-79
2021/09/23 10:17:51;;;;;;;6.68;3.40;;;;;;;19.63;52.86;100659.47;5008868;28;20112;-79
2021/09/23 10:20:20;;;;;;;4.68;3.10;;;;;;;19.45;53.35;100653.06;5044345;28;20116;-79
2021/09/23 10:22:46;;;;;;;6.78;3.30;;;;;;;19.32;52.45;100642.94;5015802;28;20038;-79
2021/09/23 10:25:24;;;;;;;6.57;3.28;;;;;;;19.11;52.95;100640.19;5032997;28;20072;-78
2021/09/23 10:30:23;;;;;;;5.93;3.25;;;;;;;19.26;52.68;100628.88;5034180;28;20026;-80
2021/09/23 10:32:49;;;;;;;5.38;2.90;;;;;;;19.50;52.57;100623.44;5025208;28;20137;-79
2021/09/23 10:35:22;;;;;;;5.65;2.97;;;;;;;19.67;51.48;100628.97;5005842;28;20048;-79
2021/09/23 10:37:54;;;;;;;5.00;3.10;;;;;;;19.86;50.78;100622.84;5041244;28;20037;-79
2021/09/23 10:40:20;;;;;;;5.13;3.08;;;;;;;19.90;50.88;100641.38;5034988;28;20053;-79
2021/09/23 10:42:49;;;;;;;5.22;3.00;;;;;;;19.99;50.39;100608.00;5044686;28;20055;-79
2021/09/23 10:45:17;;;;;;;5.63;2.67;;;;;;;20.16;49.54;100611.72;5011915;28;20049;-79
2021/09/23 10:47:47;;;;;;;6.97;3.38;;;;;;;19.95;48.81;100603.69;5045640;28;20029;-79
2021/09/23 10:50:13;;;;;;;6.03;2.47;;;;;;;20.09;48.15;100603.94;5044528;28;20033;-80
2021/09/23 10:52:41;;;;;;;4.45;2.45;;;;;;;20.16;48.51;100614.41;5018359;28;20121;-79
2021/09/23 10:55:08;;;;;;;6.78;2.65;;;;;;;20.31;48.60;100592.28;5037955;28;20026;-80
2021/09/23 10:57:33;;;;;;;6.43;2.38;;;;;;;20.40;48.10;100589.16;5041463;28;20025;-78
2021/09/23 11:00:06;;;;;;;6.97;2.83;;;;;;;20.24;47.43;100586.31;5049702;28;20040;-78
2021/09/23 11:02:32;;;;;;;3.80;2.20;;;;;;;20.24;47.78;100590.81;5013315;28;20033;-79
2021/09/23 11:04:59;;;;;;;5.80;2.25;;;;;;;20.13;47.71;100567.19;5046295;28;20043;-79
2021/09/23 11:07:27;;;;;;;4.40;2.55;;;;;;;20.23;48.70;100573.88;5035434;28;20029;-79
2021/09/23 11:10:31;;;;;;;5.75;3.05;;;;;;;20.10;48.41;100561.97;5046201;28;20032;-79
2021/09/23 11:12:58;;;;;;;4.43;2.47;;;;;;;20.26;49.04;100551.41;5016507;28;20034;-79
2021/09/23 11:15:29;;;;;;;5.68;2.33;;;;;;;20.33;48.78;100543.03;5008824;28;20033;-79
2021/09/23 11:18:00;;;;;;;4.88;2.53;;;;;;;20.36;48.33;100540.19;5018591;28;20128;-80
2021/09/23 11:20:28;;;;;;;5.03;2.20;;;;;;;20.42;48.47;100536.34;5034569;28;20147;-80
2021/09/23 11:22:57;;;;;;;3.65;2.22;;;;;;;20.48;49.16;100519.97;5002239;28;20033;-79
2021/09/23 11:25:27;;;;;;;5.13;2.50;;;;;;;20.68;48.86;100515.50;5034987;28;20029;-80